AAL1289 TXKF-KJFK
Flight info
| Callsign | AAL1289 |
|---|---|
| Flight time | N/A |
| Altitude | 32000 |
| Route | DASER L459 SAVIK/N0466F320 Y486 MOUGH Y495 CAMRN CAMRN5 |
| Aircraft | B738/M-SDE2E3FGHIRWXY/LB1 |
Departure
| Time | N/A |
|---|---|
| Airport | L.F. Wade International Airport (TXKF) |
Arrival
| Time | 2026-05-09 02:14 |
|---|---|
| Airport | John F. Kennedy International Airport (KJFK) |
| Time | Latitude | Longitude | Altitude | Speed | Heading |
|---|---|---|---|---|---|
| 2026-05-09 01:50 | 39.72441 | -72.72485 | 36014 ft | 329 kts | 309° |
| 2026-05-09 01:50 | 39.75957 | -72.76263 | 36001 ft | 325 kts | 309° |
| 2026-05-09 01:51 | 39.77689 | -72.78123 | 35529 ft | 323 kts | 309° |
| 2026-05-09 01:51 | 39.79403 | -72.80049 | 34698 ft | 325 kts | 302° |
| 2026-05-09 01:51 | 39.80627 | -72.82438 | 34211 ft | 311 kts | 290° |
| 2026-05-09 01:51 | 39.81482 | -72.84946 | 34094 ft | 296 kts | 286° |
| 2026-05-09 01:52 | 39.82026 | -72.87444 | 33928 ft | 279 kts | 277° |
| 2026-05-09 01:52 | 39.82115 | -72.89959 | 33875 ft | 279 kts | 271° |
| 2026-05-09 01:52 | 39.82064 | -72.92494 | 33830 ft | 281 kts | 270° |
| 2026-05-09 01:52 | 39.81994 | -72.95034 | 33833 ft | 281 kts | 270° |
| 2026-05-09 01:53 | 39.81921 | -72.97575 | 33830 ft | 281 kts | 270° |
| 2026-05-09 01:53 | 39.81847 | -73.00114 | 33834 ft | 281 kts | 270° |
| 2026-05-09 01:53 | 39.81774 | -73.02653 | 33828 ft | 281 kts | 270° |
| 2026-05-09 01:53 | 39.81702 | -73.05176 | 33763 ft | 276 kts | 270° |
| 2026-05-09 01:54 | 39.81632 | -73.07678 | 33190 ft | 281 kts | 270° |
| 2026-05-09 01:54 | 39.81560 | -73.10244 | 32539 ft | 287 kts | 270° |
| 2026-05-09 01:54 | 39.81486 | -73.12846 | 31895 ft | 289 kts | 270° |
| 2026-05-09 01:54 | 39.81412 | -73.15453 | 31269 ft | 288 kts | 269° |
| 2026-05-09 01:55 | 39.81336 | -73.18053 | 30656 ft | 287 kts | 269° |
| 2026-05-09 01:55 | 39.81260 | -73.20649 | 30048 ft | 287 kts | 269° |
| 2026-05-09 01:55 | 39.81222 | -73.23242 | 29333 ft | 286 kts | 275° |
| 2026-05-09 01:55 | 39.81474 | -73.25803 | 28656 ft | 286 kts | 279° |
| 2026-05-09 01:56 | 39.81900 | -73.28334 | 27983 ft | 287 kts | 284° |
| 2026-05-09 01:56 | 39.82576 | -73.30782 | 27331 ft | 288 kts | 289° |
| 2026-05-09 01:56 | 39.83345 | -73.33186 | 26673 ft | 288 kts | 289° |
| 2026-05-09 01:56 | 39.84125 | -73.35582 | 26053 ft | 288 kts | 290° |
| 2026-05-09 01:57 | 39.84917 | -73.38019 | 25045 ft | 297 kts | 290° |
| 2026-05-09 01:57 | 39.85729 | -73.40527 | 24113 ft | 304 kts | 290° |
| 2026-05-09 01:57 | 39.86555 | -73.43089 | 23126 ft | 311 kts | 291° |
| 2026-05-09 01:57 | 39.87399 | -73.45712 | 22065 ft | 316 kts | 291° |
| 2026-05-09 01:58 | 39.88254 | -73.48368 | 21026 ft | 321 kts | 291° |
| 2026-05-09 01:58 | 39.89119 | -73.51063 | 20046 ft | 325 kts | 291° |
| 2026-05-09 01:58 | 39.89991 | -73.53793 | 19074 ft | 329 kts | 291° |
| 2026-05-09 01:58 | 39.90873 | -73.56553 | 18122 ft | 331 kts | 291° |
| 2026-05-09 01:59 | 39.91745 | -73.59290 | 17158 ft | 332 kts | 291° |
| 2026-05-09 01:59 | 39.92629 | -73.62058 | 16212 ft | 331 kts | 292° |
| 2026-05-09 01:59 | 39.93588 | -73.64792 | 15289 ft | 331 kts | 295° |
| 2026-05-09 01:59 | 39.94611 | -73.67474 | 14393 ft | 330 kts | 296° |
| 2026-05-09 02:00 | 39.95641 | -73.70132 | 13498 ft | 328 kts | 296° |
| 2026-05-09 02:00 | 39.96663 | -73.72786 | 12502 ft | 327 kts | 295° |
| 2026-05-09 02:00 | 39.97673 | -73.75431 | 11609 ft | 324 kts | 295° |
| 2026-05-09 02:00 | 39.98645 | -73.77989 | 11360 ft | 304 kts | 294° |
| 2026-05-09 02:01 | 39.99551 | -73.80376 | 11212 ft | 284 kts | 294° |
| 2026-05-09 02:01 | 40.00395 | -73.82607 | 11078 ft | 265 kts | 293° |
| 2026-05-09 02:01 | 40.01191 | -73.84714 | 11047 ft | 255 kts | 293° |
| 2026-05-09 02:01 | 40.01970 | -73.86729 | 11025 ft | 243 kts | 298° |
| 2026-05-09 02:02 | 40.03162 | -73.88218 | 11025 ft | 239 kts | 326° |
| 2026-05-09 02:02 | 40.04781 | -73.88651 | 11007 ft | 244 kts | 356° |
| 2026-05-09 02:02 | 40.06411 | -73.87902 | 11035 ft | 261 kts | 22° |
| 2026-05-09 02:02 | 40.07979 | -73.86503 | 11059 ft | 285 kts | 27° |
| 2026-05-09 02:03 | 40.09657 | -73.84943 | 11055 ft | 306 kts | 27° |
| 2026-05-09 02:03 | 40.11416 | -73.83314 | 11039 ft | 312 kts | 27° |
| 2026-05-09 02:03 | 40.13186 | -73.81666 | 11009 ft | 312 kts | 27° |
| 2026-05-09 02:03 | 40.14953 | -73.80015 | 11006 ft | 312 kts | 27° |
| 2026-05-09 02:04 | 40.16714 | -73.78367 | 11011 ft | 311 kts | 27° |
| 2026-05-09 02:04 | 40.18471 | -73.76721 | 11007 ft | 310 kts | 27° |
| 2026-05-09 02:04 | 40.20205 | -73.75091 | 10739 ft | 307 kts | 28° |
| 2026-05-09 02:04 | 40.21918 | -73.73484 | 10481 ft | 299 kts | 27° |
| 2026-05-09 02:05 | 40.23603 | -73.71904 | 10067 ft | 297 kts | 27° |
| 2026-05-09 02:05 | 40.25282 | -73.70334 | 9588 ft | 297 kts | 27° |
| 2026-05-09 02:05 | 40.26962 | -73.68775 | 9141 ft | 295 kts | 28° |
| 2026-05-09 02:05 | 40.28630 | -73.67244 | 8746 ft | 291 kts | 27° |
| 2026-05-09 02:06 | 40.30285 | -73.65741 | 8308 ft | 289 kts | 28° |
| 2026-05-09 02:06 | 40.31961 | -73.64242 | 7681 ft | 294 kts | 28° |
| 2026-05-09 02:06 | 40.33674 | -73.62741 | 7069 ft | 298 kts | 28° |
| 2026-05-09 02:07 | 40.37178 | -73.59774 | 6015 ft | 296 kts | 27° |
| 2026-05-09 02:07 | 40.38868 | -73.58370 | 5832 ft | 282 kts | 27° |
| 2026-05-09 02:07 | 40.40523 | -73.56993 | 5354 ft | 282 kts | 27° |
| 2026-05-09 02:07 | 40.42202 | -73.55709 | 4890 ft | 276 kts | 17° |
| 2026-05-09 02:08 | 40.44036 | -73.55227 | 4435 ft | 266 kts | 360° |
| 2026-05-09 02:08 | 40.45867 | -73.55108 | 4062 ft | 259 kts | 358° |
| 2026-05-09 02:08 | 40.47602 | -73.55121 | 3844 ft | 241 kts | 349° |
| 2026-05-09 02:08 | 40.49212 | -73.55438 | 3575 ft | 227 kts | 345° |
| 2026-05-09 02:09 | 40.50685 | -73.55971 | 3312 ft | 214 kts | 339° |
| 2026-05-09 02:09 | 40.51607 | -73.56363 | 3152 ft | 207 kts | 339° |
| 2026-05-09 02:09 | 40.52931 | -73.56948 | 3055 ft | 199 kts | 338° |
| 2026-05-09 02:09 | 40.54252 | -73.57537 | 2974 ft | 200 kts | 339° |
| 2026-05-09 02:10 | 40.55544 | -73.58118 | 2855 ft | 192 kts | 338° |
| 2026-05-09 02:10 | 40.56645 | -73.58973 | 2676 ft | 181 kts | 306° |
| 2026-05-09 02:10 | 40.57275 | -73.60341 | 2604 ft | 171 kts | 302° |
| 2026-05-09 02:10 | 40.57899 | -73.61613 | 2534 ft | 161 kts | 301° |
| 2026-05-09 02:11 | 40.58485 | -73.62869 | 2377 ft | 156 kts | 300° |
| 2026-05-09 02:11 | 40.59032 | -73.64073 | 2137 ft | 149 kts | 300° |
| 2026-05-09 02:11 | 40.59570 | -73.65268 | 1933 ft | 156 kts | 301° |
| 2026-05-09 02:11 | 40.60106 | -73.66461 | 1744 ft | 150 kts | 300° |
| 2026-05-09 02:12 | 40.60630 | -73.67624 | 1496 ft | 145 kts | 300° |
| 2026-05-09 02:12 | 40.61140 | -73.68753 | 1354 ft | 146 kts | 300° |
| 2026-05-09 02:12 | 40.61665 | -73.69918 | 1144 ft | 149 kts | 300° |
| 2026-05-09 02:12 | 40.62201 | -73.71091 | 954 ft | 150 kts | 302° |
| 2026-05-09 02:13 | 40.62753 | -73.72267 | 693 ft | 153 kts | 297° |
| 2026-05-09 02:13 | 40.63261 | -73.73483 | 491 ft | 151 kts | 300° |
| 2026-05-09 02:13 | 40.63803 | -73.74665 | 329 ft | 151 kts | 299° |
| 2026-05-09 02:13 | 40.64341 | -73.75860 | 127 ft | 152 kts | 300° |
| 2026-05-09 02:14 | 40.64867 | -73.77032 | 18 ft | 139 kts | 300° |
| 2026-05-09 02:14 | 40.65274 | -73.77917 | 18 ft | 54 kts | 300° |
| 2026-05-09 02:14 | 40.65313 | -73.78187 | 24 ft | 12 kts | 270° |
| 2026-05-09 02:14 | 40.65322 | -73.78284 | 24 ft | 10 kts | 288° |
| 2026-05-09 02:15 | 40.65350 | -73.78364 | 27 ft | 10 kts | 299° |
| 2026-05-09 02:15 | 40.65360 | -73.78446 | 23 ft | 9 kts | 257° |
| 2026-05-09 02:15 | 40.65328 | -73.78539 | 22 ft | 12 kts | 244° |
| 2026-05-09 02:15 | 40.65288 | -73.78636 | 27 ft | 12 kts | 241° |
| 2026-05-09 02:16 | 40.65245 | -73.78735 | 24 ft | 14 kts | 241° |
| 2026-05-09 02:16 | 40.65218 | -73.78858 | 22 ft | 14 kts | 267° |
| 2026-05-09 02:16 | 40.65232 | -73.78980 | 22 ft | 13 kts | 286° |
| 2026-05-09 02:16 | 40.65260 | -73.79093 | 23 ft | 13 kts | 288° |
| 2026-05-09 02:17 | 40.65284 | -73.79205 | 24 ft | 12 kts | 283° |
| 2026-05-09 02:17 | 40.65283 | -73.79317 | 22 ft | 12 kts | 262° |
| 2026-05-09 02:17 | 40.65250 | -73.79417 | 24 ft | 12 kts | 240° |
| 2026-05-09 02:17 | 40.65210 | -73.79510 | 22 ft | 12 kts | 242° |
| 2026-05-09 02:18 | 40.65170 | -73.79601 | 23 ft | 11 kts | 240° |
| 2026-05-09 02:18 | 40.65110 | -73.79639 | 23 ft | 11 kts | 156° |
| 2026-05-09 02:18 | 40.65045 | -73.79590 | 23 ft | 11 kts | 150° |
| 2026-05-09 02:18 | 40.65027 | -73.79512 | 23 ft | 9 kts | 81° |
| 2026-05-09 02:19 | 40.64997 | -73.79474 | 23 ft | 5 kts | 151° |
| 2026-05-09 02:19 | 40.64982 | -73.79463 | 23 ft | 1 kts | 150° |
| 2026-05-09 02:19 | 40.64980 | -73.79462 | 23 ft | 0 kts | 150° |